sensor_id;sensor_type;location;lat;lon;timestamp;temperature;humidity
3628;DHT22;1830;49.000;12.074;2022-09-27T00:01:16;11.50;99.90
3628;DHT22;1830;49.000;12.074;2022-09-27T00:03:43;11.40;99.90
3628;DHT22;1830;49.000;12.074;2022-09-27T00:06:12;11.40;99.90
3628;DHT22;1830;49.000;12.074;2022-09-27T00:08:40;11.40;99.90
3628;DHT22;1830;49.000;12.074;2022-09-27T00:11:11;11.50;99.90
3628;DHT22;1830;49.000;12.074;2022-09-27T00:13:42;11.50;99.90
3628;DHT22;1830;49.000;12.074;2022-09-27T00:16:11;11.50;99.90
3628;DHT22;1830;49.000;12.074;2022-09-27T00:18:37;11.50;99.90
3628;DHT22;1830;49.000;12.074;2022-09-27T00:21:06;11.60;99.90
3628;DHT22;1830;49.000;12.074;2022-09-27T00:23:34;11.60;99.90
3628;DHT22;1830;49.000;12.074;2022-09-27T00:26:01;11.70;99.90
3628;DHT22;1830;49.000;12.074;2022-09-27T00:28:28;11.70;99.90
3628;DHT22;1830;49.000;12.074;2022-09-27T00:30:55;11.70;99.90
3628;DHT22;1830;49.000;12.074;2022-09-27T00:33:23;11.70;99.90
3628;DHT22;1830;49.000;12.074;2022-09-27T00:35:50;11.60;99.90
3628;DHT22;1830;49.000;12.074;2022-09-27T00:38:17;11.70;99.90
3628;DHT22;1830;49.000;12.074;2022-09-27T00:40:44;11.60;99.90
3628;DHT22;1830;49.000;12.074;2022-09-27T00:43:17;11.60;99.90
3628;DHT22;1830;49.000;12.074;2022-09-27T00:45:48;11.60;99.90
3628;DHT22;1830;49.000;12.074;2022-09-27T00:48:17;11.70;99.90
3628;DHT22;1830;49.000;12.074;2022-09-27T00:50:49;11.60;99.90
3628;DHT22;1830;49.000;12.074;2022-09-27T00:53:20;11.60;99.90
3628;DHT22;1830;49.000;12.074;2022-09-27T00:55:52;11.60;99.90
3628;DHT22;1830;49.000;12.074;2022-09-27T00:58:23;11.60;99.90
3628;DHT22;1830;49.000;12.074;2022-09-27T01:00:56;11.50;99.90
3628;DHT22;1830;49.000;12.074;2022-09-27T01:03:31;11.50;99.90
3628;DHT22;1830;49.000;12.074;2022-09-27T01:06:01;11.50;99.90
3628;DHT22;1830;49.000;12.074;2022-09-27T01:08:28;11.50;99.90
3628;DHT22;1830;49.000;12.074;2022-09-27T01:11:13;11.50;99.90
3628;DHT22;1830;49.000;12.074;2022-09-27T01:13:53;11.50;99.90
3628;DHT22;1830;49.000;12.074;2022-09-27T01:16:31;11.40;99.90
3628;DHT22;1830;49.000;12.074;2022-09-27T01:19:08;11.40;99.90
3628;DHT22;1830;49.000;12.074;2022-09-27T01:21:45;11.30;99.90
3628;DHT22;1830;49.000;12.074;2022-09-27T01:24:33;11.30;99.90
3628;DHT22;1830;49.000;12.074;2022-09-27T01:27:53;11.30;99.90
3628;DHT22;1830;49.000;12.074;2022-09-27T01:30:25;11.30;99.90
3628;DHT22;1830;49.000;12.074;2022-09-27T01:33:06;11.30;99.90
3628;DHT22;1830;49.000;12.074;2022-09-27T01:35:39;11.20;99.90
3628;DHT22;1830;49.000;12.074;2022-09-27T01:38:12;11.20;99.90
3628;DHT22;1830;49.000;12.074;2022-09-27T01:40:45;11.20;99.90
3628;DHT22;1830;49.000;12.074;2022-09-27T01:43:18;11.10;99.90
3628;DHT22;1830;49.000;12.074;2022-09-27T01:45:52;11.10;99.90
3628;DHT22;1830;49.000;12.074;2022-09-27T01:48:22;11.10;99.90
3628;DHT22;1830;49.000;12.074;2022-09-27T01:50:51;11.00;99.90
3628;DHT22;1830;49.000;12.074;2022-09-27T01:53:22;11.10;99.90
3628;DHT22;1830;49.000;12.074;2022-09-27T01:55:52;11.10;99.90
3628;DHT22;1830;49.000;12.074;2022-09-27T01:58:25;10.90;99.90
3628;DHT22;1830;49.000;12.074;2022-09-27T02:00:56;10.90;99.90
3628;DHT22;1830;49.000;12.074;2022-09-27T02:03:26;10.90;99.90
3628;DHT22;1830;49.000;12.074;2022-09-27T02:05:58;10.80;99.90
3628;DHT22;1830;49.000;12.074;2022-09-27T02:08:30;10.90;99.90
3628;DHT22;1830;49.000;12.074;2022-09-27T02:11:03;11.00;99.90
3628;DHT22;1830;49.000;12.074;2022-09-27T02:13:37;10.80;99.90
3628;DHT22;1830;49.000;12.074;2022-09-27T02:16:16;10.90;99.90
3628;DHT22;1830;49.000;12.074;2022-09-27T02:18:52;10.90;99.90
3628;DHT22;1830;49.000;12.074;2022-09-27T02:21:26;10.80;99.90
3628;DHT22;1830;49.000;12.074;2022-09-27T02:23:57;10.80;99.90
3628;DHT22;1830;49.000;12.074;2022-09-27T02:26:32;10.80;99.90
3628;DHT22;1830;49.000;12.074;2022-09-27T02:29:06;10.80;99.90
3628;DHT22;1830;49.000;12.074;2022-09-27T02:31:36;10.80;99.90
3628;DHT22;1830;49.000;12.074;2022-09-27T02:34:05;10.80;99.90
3628;DHT22;1830;49.000;12.074;2022-09-27T02:36:32;10.80;99.90
3628;DHT22;1830;49.000;12.074;2022-09-27T02:38:59;10.80;99.90
3628;DHT22;1830;49.000;12.074;2022-09-27T02:41:26;10.80;99.90
3628;DHT22;1830;49.000;12.074;2022-09-27T02:43:56;10.70;99.90
3628;DHT22;1830;49.000;12.074;2022-09-27T02:46:42;10.80;99.90
3628;DHT22;1830;49.000;12.074;2022-09-27T02:49:24;10.60;99.90
3628;DHT22;1830;49.000;12.074;2022-09-27T02:52:02;10.60;99.90
3628;DHT22;1830;49.000;12.074;2022-09-27T02:54:39;10.60;99.90
3628;DHT22;1830;49.000;12.074;2022-09-27T02:57:21;10.60;99.90
3628;DHT22;1830;49.000;12.074;2022-09-27T02:59:54;10.60;99.90
3628;DHT22;1830;49.000;12.074;2022-09-27T03:02:31;10.60;99.90
3628;DHT22;1830;49.000;12.074;2022-09-27T03:05:01;10.50;99.90
3628;DHT22;1830;49.000;12.074;2022-09-27T03:07:28;10.50;99.90
3628;DHT22;1830;49.000;12.074;2022-09-27T03:10:05;10.50;99.90
3628;DHT22;1830;49.000;12.074;2022-09-27T03:12:32;10.50;99.90
3628;DHT22;1830;49.000;12.074;2022-09-27T03:14:59;10.50;99.90
3628;DHT22;1830;49.000;12.074;2022-09-27T03:17:28;10.50;99.90
3628;DHT22;1830;49.000;12.074;2022-09-27T03:19:54;10.50;99.90
3628;DHT22;1830;49.000;12.074;2022-09-27T03:22:21;10.50;99.90
3628;DHT22;1830;49.000;12.074;2022-09-27T03:24:48;10.50;99.90
3628;DHT22;1830;49.000;12.074;2022-09-27T03:27:15;10.50;99.90
3628;DHT22;1830;49.000;12.074;2022-09-27T03:29:43;10.40;99.90
3628;DHT22;1830;49.000;12.074;2022-09-27T03:32:09;10.50;99.90
3628;DHT22;1830;49.000;12.074;2022-09-27T03:34:37;10.50;99.90
3628;DHT22;1830;49.000;12.074;2022-09-27T03:37:04;10.50;99.90
3628;DHT22;1830;49.000;12.074;2022-09-27T03:39:31;10.40;99.90
3628;DHT22;1830;49.000;12.074;2022-09-27T03:41:58;10.40;99.90
3628;DHT22;1830;49.000;12.074;2022-09-27T03:44:25;10.40;99.90
3628;DHT22;1830;49.000;12.074;2022-09-27T03:46:52;10.40;99.90
3628;DHT22;1830;49.000;12.074;2022-09-27T03:49:19;10.40;99.90
3628;DHT22;1830;49.000;12.074;2022-09-27T03:51:47;10.40;99.90
3628;DHT22;1830;49.000;12.074;2022-09-27T03:54:14;10.30;99.90
3628;DHT22;1830;49.000;12.074;2022-09-27T03:56:40;10.30;99.90
3628;DHT22;1830;49.000;12.074;2022-09-27T03:59:07;10.10;99.90
3628;DHT22;1830;49.000;12.074;2022-09-27T04:01:34;10.10;99.90
3628;DHT22;1830;49.000;12.074;2022-09-27T04:04:05;10.20;99.90
3628;DHT22;1830;49.000;12.074;2022-09-27T04:06:41;10.20;99.90
3628;DHT22;1830;49.000;12.074;2022-09-27T04:09:09;10.20;99.90
3628;DHT22;1830;49.000;12.074;2022-09-27T04:11:45;10.20;99.90
3628;DHT22;1830;49.000;12.074;2022-09-27T04:14:13;10.10;99.90
3628;DHT22;1830;49.000;12.074;2022-09-27T04:16:40;10.20;99.90
3628;DHT22;1830;49.000;12.074;2022-09-27T04:19:07;10.10;99.90
3628;DHT22;1830;49.000;12.074;2022-09-27T04:21:36;10.20;99.90
3628;DHT22;1830;49.000;12.074;2022-09-27T04:24:03;10.20;99.90
3628;DHT22;1830;49.000;12.074;2022-09-27T04:26:32;10.20;99.90
3628;DHT22;1830;49.000;12.074;2022-09-27T04:28:59;10.20;99.90
3628;DHT22;1830;49.000;12.074;2022-09-27T04:31:26;10.30;99.90
3628;DHT22;1830;49.000;12.074;2022-09-27T04:33:53;10.30;99.90
3628;DHT22;1830;49.000;12.074;2022-09-27T04:36:22;10.20;99.90
3628;DHT22;1830;49.000;12.074;2022-09-27T04:38:51;10.20;99.90
3628;DHT22;1830;49.000;12.074;2022-09-27T04:41:18;10.30;99.90
3628;DHT22;1830;49.000;12.074;2022-09-27T04:43:47;10.30;99.90
3628;DHT22;1830;49.000;12.074;2022-09-27T04:46:14;10.20;99.90
3628;DHT22;1830;49.000;12.074;2022-09-27T04:48:41;10.20;99.90
3628;DHT22;1830;49.000;12.074;2022-09-27T04:51:08;10.20;99.90
3628;DHT22;1830;49.000;12.074;2022-09-27T04:53:36;10.20;99.90
3628;DHT22;1830;49.000;12.074;2022-09-27T04:56:03;10.30;99.90
3628;DHT22;1830;49.000;12.074;2022-09-27T04:58:31;10.30;99.90
3628;DHT22;1830;49.000;12.074;2022-09-27T05:01:00;10.20;99.90
3628;DHT22;1830;49.000;12.074;2022-09-27T05:03:28;10.20;99.90
3628;DHT22;1830;49.000;12.074;2022-09-27T05:05:55;10.20;99.90
3628;DHT22;1830;49.000;12.074;2022-09-27T05:08:22;10.30;99.90
3628;DHT22;1830;49.000;12.074;2022-09-27T05:10:48;10.30;99.90
3628;DHT22;1830;49.000;12.074;2022-09-27T05:13:16;10.20;99.90
3628;DHT22;1830;49.000;12.074;2022-09-27T05:15:43;10.30;99.90
3628;DHT22;1830;49.000;12.074;2022-09-27T05:18:11;10.30;99.90
3628;DHT22;1830;49.000;12.074;2022-09-27T05:20:38;10.20;99.90
3628;DHT22;1830;49.000;12.074;2022-09-27T05:23:05;10.20;99.90
3628;DHT22;1830;49.000;12.074;2022-09-27T05:25:32;10.30;99.90
3628;DHT22;1830;49.000;12.074;2022-09-27T05:27:59;10.30;99.90
3628;DHT22;1830;49.000;12.074;2022-09-27T05:30:26;10.30;99.90
3628;DHT22;1830;49.000;12.074;2022-09-27T05:32:53;10.30;99.90
3628;DHT22;1830;49.000;12.074;2022-09-27T05:35:21;10.30;99.90
3628;DHT22;1830;49.000;12.074;2022-09-27T05:37:52;10.30;99.90
3628;DHT22;1830;49.000;12.074;2022-09-27T05:40:19;10.30;99.90
3628;DHT22;1830;49.000;12.074;2022-09-27T05:42:49;10.40;99.90
3628;DHT22;1830;49.000;12.074;2022-09-27T05:45:17;10.40;99.90
3628;DHT22;1830;49.000;12.074;2022-09-27T05:47:51;10.40;99.90
3628;DHT22;1830;49.000;12.074;2022-09-27T05:50:18;10.40;99.90
3628;DHT22;1830;49.000;12.074;2022-09-27T05:52:47;10.30;99.90
3628;DHT22;1830;49.000;12.074;2022-09-27T05:55:14;10.30;99.90
3628;DHT22;1830;49.000;12.074;2022-09-27T05:57:40;10.30;99.90
3628;DHT22;1830;49.000;12.074;2022-09-27T06:00:08;10.30;99.90
3628;DHT22;1830;49.000;12.074;2022-09-27T06:02:35;10.40;99.90
3628;DHT22;1830;49.000;12.074;2022-09-27T06:05:02;10.40;99.90
3628;DHT22;1830;49.000;12.074;2022-09-27T06:07:29;10.50;99.90
3628;DHT22;1830;49.000;12.074;2022-09-27T06:09:58;10.50;99.90
3628;DHT22;1830;49.000;12.074;2022-09-27T06:12:24;10.40;99.90
3628;DHT22;1830;49.000;12.074;2022-09-27T06:14:51;10.30;99.90
3628;DHT22;1830;49.000;12.074;2022-09-27T06:17:18;10.30;99.90
3628;DHT22;1830;49.000;12.074;2022-09-27T06:19:45;10.40;99.90
3628;DHT22;1830;49.000;12.074;2022-09-27T06:22:14;10.40;99.90
3628;DHT22;1830;49.000;12.074;2022-09-27T06:24:40;10.20;99.90
3628;DHT22;1830;49.000;12.074;2022-09-27T06:27:08;10.10;99.90
3628;DHT22;1830;49.000;12.074;2022-09-27T06:29:35;10.10;99.90
3628;DHT22;1830;49.000;12.074;2022-09-27T06:32:03;10.10;99.90
3628;DHT22;1830;49.000;12.074;2022-09-27T06:34:30;10.10;99.90
3628;DHT22;1830;49.000;12.074;2022-09-27T06:36:57;10.10;99.90
3628;DHT22;1830;49.000;12.074;2022-09-27T06:39:23;10.10;99.90
3628;DHT22;1830;49.000;12.074;2022-09-27T06:41:52;10.10;99.90
3628;DHT22;1830;49.000;12.074;2022-09-27T06:44:24;10.10;99.90
3628;DHT22;1830;49.000;12.074;2022-09-27T06:46:51;10.10;99.90
3628;DHT22;1830;49.000;12.074;2022-09-27T06:49:19;10.00;99.90
3628;DHT22;1830;49.000;12.074;2022-09-27T06:51:47;10.10;99.90
3628;DHT22;1830;49.000;12.074;2022-09-27T06:54:14;10.00;99.90
3628;DHT22;1830;49.000;12.074;2022-09-27T06:56:41;10.00;99.90
3628;DHT22;1830;49.000;12.074;2022-09-27T06:59:07;9.90;99.90
3628;DHT22;1830;49.000;12.074;2022-09-27T07:01:53;9.90;99.90
3628;DHT22;1830;49.000;12.074;2022-09-27T07:04:20;10.00;99.90
3628;DHT22;1830;49.000;12.074;2022-09-27T07:06:47;10.00;99.90
3628;DHT22;1830;49.000;12.074;2022-09-27T07:09:14;10.10;99.90
3628;DHT22;1830;49.000;12.074;2022-09-27T07:11:41;10.10;99.90
3628;DHT22;1830;49.000;12.074;2022-09-27T07:14:10;10.30;99.90
3628;DHT22;1830;49.000;12.074;2022-09-27T07:16:37;10.30;99.90
3628;DHT22;1830;49.000;12.074;2022-09-27T07:19:05;10.30;99.90
3628;DHT22;1830;49.000;12.074;2022-09-27T07:21:36;10.40;99.90
3628;DHT22;1830;49.000;12.074;2022-09-27T07:24:02;10.50;99.90
3628;DHT22;1830;49.000;12.074;2022-09-27T07:26:29;10.50;99.90
3628;DHT22;1830;49.000;12.074;2022-09-27T07:28:56;10.50;99.90
3628;DHT22;1830;49.000;12.074;2022-09-27T07:31:24;10.50;99.90
3628;DHT22;1830;49.000;12.074;2022-09-27T07:33:50;10.60;99.90
3628;DHT22;1830;49.000;12.074;2022-09-27T07:36:19;10.50;99.90
3628;DHT22;1830;49.000;12.074;2022-09-27T07:38:46;10.50;99.90
3628;DHT22;1830;49.000;12.074;2022-09-27T07:41:13;10.50;99.90
3628;DHT22;1830;49.000;12.074;2022-09-27T07:43:40;10.60;99.90
3628;DHT22;1830;49.000;12.074;2022-09-27T07:46:08;10.60;99.90
3628;DHT22;1830;49.000;12.074;2022-09-27T07:48:35;10.60;99.90
3628;DHT22;1830;49.000;12.074;2022-09-27T07:51:02;10.50;99.90
3628;DHT22;1830;49.000;12.074;2022-09-27T07:53:33;10.50;99.90
3628;DHT22;1830;49.000;12.074;2022-09-27T07:56:00;10.50;99.90
3628;DHT22;1830;49.000;12.074;2022-09-27T07:58:27;10.60;99.90
3628;DHT22;1830;49.000;12.074;2022-09-27T08:00:55;10.60;99.90
3628;DHT22;1830;49.000;12.074;2022-09-27T08:03:26;10.70;99.90
3628;DHT22;1830;49.000;12.074;2022-09-27T08:05:53;10.70;99.90
3628;DHT22;1830;49.000;12.074;2022-09-27T08:08:20;10.70;99.90
3628;DHT22;1830;49.000;12.074;2022-09-27T08:10:48;10.70;99.90
3628;DHT22;1830;49.000;12.074;2022-09-27T08:13:15;10.60;99.90
3628;DHT22;1830;49.000;12.074;2022-09-27T08:15:44;10.70;99.90
3628;DHT22;1830;49.000;12.074;2022-09-27T08:18:12;10.60;99.90
3628;DHT22;1830;49.000;12.074;2022-09-27T08:20:39;10.60;99.90
3628;DHT22;1830;49.000;12.074;2022-09-27T08:23:06;10.60;99.90
3628;DHT22;1830;49.000;12.074;2022-09-27T08:25:33;10.50;99.90
3628;DHT22;1830;49.000;12.074;2022-09-27T08:28:03;10.70;99.90
3628;DHT22;1830;49.000;12.074;2022-09-27T08:30:30;10.80;99.90
3628;DHT22;1830;49.000;12.074;2022-09-27T08:32:58;10.80;99.90
3628;DHT22;1830;49.000;12.074;2022-09-27T08:35:27;10.70;99.90
3628;DHT22;1830;49.000;12.074;2022-09-27T08:37:55;10.80;99.90
3628;DHT22;1830;49.000;12.074;2022-09-27T08:40:27;10.60;99.90
3628;DHT22;1830;49.000;12.074;2022-09-27T08:43:04;10.60;99.90
3628;DHT22;1830;49.000;12.074;2022-09-27T08:45:36;10.60;99.90
3628;DHT22;1830;49.000;12.074;2022-09-27T08:48:05;10.60;99.90
3628;DHT22;1830;49.000;12.074;2022-09-27T08:50:35;10.40;99.90
3628;DHT22;1830;49.000;12.074;2022-09-27T08:53:05;10.40;99.90
3628;DHT22;1830;49.000;12.074;2022-09-27T08:55:40;10.40;99.90
3628;DHT22;1830;49.000;12.074;2022-09-27T08:58:14;10.40;99.90
3628;DHT22;1830;49.000;12.074;2022-09-27T09:00:42;10.50;99.90
3628;DHT22;1830;49.000;12.074;2022-09-27T09:03:16;10.50;99.90
3628;DHT22;1830;49.000;12.074;2022-09-27T09:05:49;10.60;99.90
3628;DHT22;1830;49.000;12.074;2022-09-27T09:08:26;10.50;99.90
3628;DHT22;1830;49.000;12.074;2022-09-27T09:11:03;10.60;99.90
3628;DHT22;1830;49.000;12.074;2022-09-27T09:14:16;10.60;99.90
3628;DHT22;1830;49.000;12.074;2022-09-27T09:16:53;10.60;99.90
3628;DHT22;1830;49.000;12.074;2022-09-27T09:19:35;10.60;99.90
3628;DHT22;1830;49.000;12.074;2022-09-27T09:22:15;10.70;99.90
3628;DHT22;1830;49.000;12.074;2022-09-27T09:24:57;10.60;99.90
3628;DHT22;1830;49.000;12.074;2022-09-27T09:27:31;10.70;99.90
3628;DHT22;1830;49.000;12.074;2022-09-27T09:30:19;10.70;99.90
3628;DHT22;1830;49.000;12.074;2022-09-27T09:33:03;10.80;99.90
3628;DHT22;1830;49.000;12.074;2022-09-27T09:35:38;11.00;99.90
3628;DHT22;1830;49.000;12.074;2022-09-27T09:38:11;11.00;99.90
3628;DHT22;1830;49.000;12.074;2022-09-27T09:40:41;11.10;99.90
3628;DHT22;1830;49.000;12.074;2022-09-27T09:43:13;11.00;99.90
3628;DHT22;1830;49.000;12.074;2022-09-27T09:45:46;11.10;99.90
3628;DHT22;1830;49.000;12.074;2022-09-27T09:48:18;11.00;99.90
3628;DHT22;1830;49.000;12.074;2022-09-27T09:50:49;11.00;99.90
3628;DHT22;1830;49.000;12.074;2022-09-27T09:53:19;11.00;99.90
3628;DHT22;1830;49.000;12.074;2022-09-27T09:55:50;11.00;99.90
3628;DHT22;1830;49.000;12.074;2022-09-27T09:58:21;11.00;99.90
3628;DHT22;1830;49.000;12.074;2022-09-27T10:00:53;11.00;99.90
3628;DHT22;1830;49.000;12.074;2022-09-27T10:03:22;11.00;99.90
3628;DHT22;1830;49.000;12.074;2022-09-27T10:05:48;11.00;99.90
3628;DHT22;1830;49.000;12.074;2022-09-27T10:08:18;11.00;99.90
3628;DHT22;1830;49.000;12.074;2022-09-27T10:10:46;11.00;99.90
3628;DHT22;1830;49.000;12.074;2022-09-27T10:13:15;11.00;99.90
3628;DHT22;1830;49.000;12.074;2022-09-27T10:15:43;11.20;99.90
3628;DHT22;1830;49.000;12.074;2022-09-27T10:18:18;11.30;99.90
3628;DHT22;1830;49.000;12.074;2022-09-27T10:20:49;11.30;99.90
3628;DHT22;1830;49.000;12.074;2022-09-27T10:23:20;11.30;99.90
3628;DHT22;1830;49.000;12.074;2022-09-27T10:25:50;11.40;99.90
3628;DHT22;1830;49.000;12.074;2022-09-27T10:28:33;11.40;99.90
3628;DHT22;1830;49.000;12.074;2022-09-27T10:31:03;11.50;99.90
3628;DHT22;1830;49.000;12.074;2022-09-27T10:33:36;11.60;99.90
3628;DHT22;1830;49.000;12.074;2022-09-27T10:36:21;11.60;99.90
3628;DHT22;1830;49.000;12.074;2022-09-27T10:38:52;11.40;99.90
3628;DHT22;1830;49.000;12.074;2022-09-27T10:41:24;11.30;99.90
3628;DHT22;1830;49.000;12.074;2022-09-27T10:43:52;11.30;99.90
3628;DHT22;1830;49.000;12.074;2022-09-27T10:46:24;11.30;99.90
3628;DHT22;1830;49.000;12.074;2022-09-27T10:51:48;11.40;99.90
3628;DHT22;1830;49.000;12.074;2022-09-27T10:54:19;11.40;99.90
3628;DHT22;1830;49.000;12.074;2022-09-27T10:56:54;11.40;99.90
3628;DHT22;1830;49.000;12.074;2022-09-27T10:59:21;11.30;99.90
3628;DHT22;1830;49.000;12.074;2022-09-27T11:01:48;11.40;99.90
3628;DHT22;1830;49.000;12.074;2022-09-27T11:04:21;11.40;99.90
3628;DHT22;1830;49.000;12.074;2022-09-27T11:06:50;11.20;99.90
3628;DHT22;1830;49.000;12.074;2022-09-27T11:09:20;11.30;99.90
3628;DHT22;1830;49.000;12.074;2022-09-27T11:11:52;11.20;99.90
3628;DHT22;1830;49.000;12.074;2022-09-27T11:14:30;11.30;99.90
3628;DHT22;1830;49.000;12.074;2022-09-27T11:17:09;11.40;99.90
3628;DHT22;1830;49.000;12.074;2022-09-27T11:19:47;11.40;99.90
3628;DHT22;1830;49.000;12.074;2022-09-27T11:22:36;11.40;99.90
3628;DHT22;1830;49.000;12.074;2022-09-27T11:25:17;11.50;99.90
3628;DHT22;1830;49.000;12.074;2022-09-27T11:27:55;11.50;99.90
3628;DHT22;1830;49.000;12.074;2022-09-27T11:30:28;11.50;99.90
3628;DHT22;1830;49.000;12.074;2022-09-27T11:36:10;11.30;99.90
3628;DHT22;1830;49.000;12.074;2022-09-27T11:38:51;11.30;99.90
3628;DHT22;1830;49.000;12.074;2022-09-27T11:41:33;11.10;99.90
3628;DHT22;1830;49.000;12.074;2022-09-27T11:44:23;11.00;99.90
3628;DHT22;1830;49.000;12.074;2022-09-27T11:47:02;10.90;99.90
3628;DHT22;1830;49.000;12.074;2022-09-27T11:50:09;11.00;99.90
3628;DHT22;1830;49.000;12.074;2022-09-27T11:52:47;11.10;99.90
3628;DHT22;1830;49.000;12.074;2022-09-27T11:55:30;11.00;99.90
3628;DHT22;1830;49.000;12.074;2022-09-27T11:58:05;11.10;99.90
3628;DHT22;1830;49.000;12.074;2022-09-27T12:00:48;11.30;99.90
3628;DHT22;1830;49.000;12.074;2022-09-27T12:03:46;11.40;99.90
3628;DHT22;1830;49.000;12.074;2022-09-27T12:06:16;11.40;99.90
3628;DHT22;1830;49.000;12.074;2022-09-27T12:08:57;11.50;99.90
3628;DHT22;1830;49.000;12.074;2022-09-27T12:11:35;11.60;99.90
3628;DHT22;1830;49.000;12.074;2022-09-27T12:14:05;11.80;99.90
3628;DHT22;1830;49.000;12.074;2022-09-27T12:16:36;12.10;99.90
3628;DHT22;1830;49.000;12.074;2022-09-27T12:19:13;12.00;99.90
3628;DHT22;1830;49.000;12.074;2022-09-27T12:21:41;12.20;99.90
3628;DHT22;1830;49.000;12.074;2022-09-27T12:24:18;12.30;99.90
3628;DHT22;1830;49.000;12.074;2022-09-27T12:26:52;12.40;99.90
3628;DHT22;1830;49.000;12.074;2022-09-27T12:29:21;12.30;99.90
3628;DHT22;1830;49.000;12.074;2022-09-27T12:31:56;12.50;99.90
3628;DHT22;1830;49.000;12.074;2022-09-27T12:34:32;12.30;99.90
3628;DHT22;1830;49.000;12.074;2022-09-27T12:37:04;12.20;99.90
3628;DHT22;1830;49.000;12.074;2022-09-27T12:39:42;12.00;99.90
3628;DHT22;1830;49.000;12.074;2022-09-27T12:42:16;11.90;99.90
3628;DHT22;1830;49.000;12.074;2022-09-27T12:44:45;11.80;99.90
3628;DHT22;1830;49.000;12.074;2022-09-27T12:47:23;11.80;99.90
3628;DHT22;1830;49.000;12.074;2022-09-27T12:50:11;11.90;99.90
3628;DHT22;1830;49.000;12.074;2022-09-27T12:52:43;12.00;99.90
3628;DHT22;1830;49.000;12.074;2022-09-27T12:55:41;12.30;99.90
3628;DHT22;1830;49.000;12.074;2022-09-27T13:01:49;12.40;99.90
3628;DHT22;1830;49.000;12.074;2022-09-27T13:04:45;12.50;99.90
3628;DHT22;1830;49.000;12.074;2022-09-27T13:07:25;12.60;99.90
3628;DHT22;1830;49.000;12.074;2022-09-27T13:10:06;12.60;99.90
3628;DHT22;1830;49.000;12.074;2022-09-27T13:12:48;12.50;99.90
3628;DHT22;1830;49.000;12.074;2022-09-27T13:15:25;12.50;99.90
3628;DHT22;1830;49.000;12.074;2022-09-27T13:17:54;12.40;99.90
3628;DHT22;1830;49.000;12.074;2022-09-27T13:20:48;12.50;99.90
3628;DHT22;1830;49.000;12.074;2022-09-27T13:26:49;12.40;99.90
3628;DHT22;1830;49.000;12.074;2022-09-27T13:29:25;12.70;99.90
3628;DHT22;1830;49.000;12.074;2022-09-27T13:32:21;12.80;99.90
3628;DHT22;1830;49.000;12.074;2022-09-27T13:34:50;12.80;99.90
3628;DHT22;1830;49.000;12.074;2022-09-27T13:37:36;12.90;99.90
3628;DHT22;1830;49.000;12.074;2022-09-27T13:40:23;12.80;99.90
3628;DHT22;1830;49.000;12.074;2022-09-27T13:45:49;13.10;99.90
3628;DHT22;1830;49.000;12.074;2022-09-27T13:48:23;13.20;99.90
3628;DHT22;1830;49.000;12.074;2022-09-27T13:50:54;13.10;99.90
3628;DHT22;1830;49.000;12.074;2022-09-27T13:53:27;13.20;99.90
3628;DHT22;1830;49.000;12.074;2022-09-27T13:55:55;13.20;99.90
3628;DHT22;1830;49.000;12.074;2022-09-27T13:58:36;13.10;99.90
3628;DHT22;1830;49.000;12.074;2022-09-27T14:01:17;12.90;99.90
3628;DHT22;1830;49.000;12.074;2022-09-27T14:03:47;12.80;99.90
3628;DHT22;1830;49.000;12.074;2022-09-27T14:06:18;12.60;99.90
3628;DHT22;1830;49.000;12.074;2022-09-27T14:08:48;12.40;99.90
3628;DHT22;1830;49.000;12.074;2022-09-27T14:11:20;12.40;99.90
3628;DHT22;1830;49.000;12.074;2022-09-27T14:13:49;12.30;99.90
3628;DHT22;1830;49.000;12.074;2022-09-27T14:16:18;12.40;99.90
3628;DHT22;1830;49.000;12.074;2022-09-27T14:18:48;12.30;99.90
3628;DHT22;1830;49.000;12.074;2022-09-27T14:21:25;12.30;99.90
3628;DHT22;1830;49.000;12.074;2022-09-27T14:23:53;12.40;99.90
3628;DHT22;1830;49.000;12.074;2022-09-27T14:26:22;12.40;99.90
3628;DHT22;1830;49.000;12.074;2022-09-27T14:28:49;12.40;99.90
3628;DHT22;1830;49.000;12.074;2022-09-27T14:31:20;12.40;99.90
3628;DHT22;1830;49.000;12.074;2022-09-27T14:33:49;12.30;99.90
3628;DHT22;1830;49.000;12.074;2022-09-27T14:36:25;12.20;99.90
3628;DHT22;1830;49.000;12.074;2022-09-27T14:39:14;12.10;99.90
3628;DHT22;1830;49.000;12.074;2022-09-27T14:41:41;12.10;99.90
3628;DHT22;1830;49.000;12.074;2022-09-27T14:44:14;12.10;99.90
3628;DHT22;1830;49.000;12.074;2022-09-27T14:46:41;12.00;99.90
3628;DHT22;1830;49.000;12.074;2022-09-27T14:49:18;12.00;99.90
3628;DHT22;1830;49.000;12.074;2022-09-27T14:51:50;11.70;99.90
3628;DHT22;1830;49.000;12.074;2022-09-27T14:54:22;11.70;99.90
3628;DHT22;1830;49.000;12.074;2022-09-27T14:56:51;11.60;99.90
3628;DHT22;1830;49.000;12.074;2022-09-27T14:59:24;11.50;99.90
3628;DHT22;1830;49.000;12.074;2022-09-27T15:01:56;11.50;99.90
3628;DHT22;1830;49.000;12.074;2022-09-27T15:04:27;11.50;99.90
3628;DHT22;1830;49.000;12.074;2022-09-27T15:06:56;11.30;99.90
3628;DHT22;1830;49.000;12.074;2022-09-27T15:09:24;11.30;99.90
3628;DHT22;1830;49.000;12.074;2022-09-27T15:11:54;11.30;99.90
3628;DHT22;1830;49.000;12.074;2022-09-27T15:14:24;11.20;99.90
3628;DHT22;1830;49.000;12.074;2022-09-27T15:16:54;11.20;99.90
3628;DHT22;1830;49.000;12.074;2022-09-27T15:19:27;11.30;99.90
3628;DHT22;1830;49.000;12.074;2022-09-27T15:21:55;11.30;99.90
3628;DHT22;1830;49.000;12.074;2022-09-27T15:24:42;11.20;99.90
3628;DHT22;1830;49.000;12.074;2022-09-27T15:27:13;11.20;99.90
3628;DHT22;1830;49.000;12.074;2022-09-27T15:29:40;11.10;99.90
3628;DHT22;1830;49.000;12.074;2022-09-27T15:32:10;11.10;99.90
3628;DHT22;1830;49.000;12.074;2022-09-27T15:34:41;11.20;99.90
3628;DHT22;1830;49.000;12.074;2022-09-27T15:37:24;11.00;99.90
3628;DHT22;1830;49.000;12.074;2022-09-27T15:39:52;11.00;99.90
3628;DHT22;1830;49.000;12.074;2022-09-27T15:42:19;10.90;99.90
3628;DHT22;1830;49.000;12.074;2022-09-27T15:44:48;10.80;99.90
3628;DHT22;1830;49.000;12.074;2022-09-27T15:47:41;10.60;99.90
3628;DHT22;1830;49.000;12.074;2022-09-27T15:50:34;10.30;99.90
3628;DHT22;1830;49.000;12.074;2022-09-27T15:53:01;10.20;99.90
3628;DHT22;1830;49.000;12.074;2022-09-27T15:55:32;10.10;99.90
3628;DHT22;1830;49.000;12.074;2022-09-27T15:58:03;10.00;99.90
3628;DHT22;1830;49.000;12.074;2022-09-27T16:00:30;10.00;99.90
3628;DHT22;1830;49.000;12.074;2022-09-27T16:02:57;10.10;99.90
3628;DHT22;1830;49.000;12.074;2022-09-27T16:05:24;10.10;99.90
3628;DHT22;1830;49.000;12.074;2022-09-27T16:07:53;10.10;99.90
3628;DHT22;1830;49.000;12.074;2022-09-27T16:10:21;10.20;99.90
3628;DHT22;1830;49.000;12.074;2022-09-27T16:12:49;10.20;99.90
3628;DHT22;1830;49.000;12.074;2022-09-27T16:15:16;10.20;99.90
3628;DHT22;1830;49.000;12.074;2022-09-27T16:17:43;10.20;99.90
3628;DHT22;1830;49.000;12.074;2022-09-27T16:20:16;10.20;99.90
3628;DHT22;1830;49.000;12.074;2022-09-27T16:22:43;10.20;99.90
3628;DHT22;1830;49.000;12.074;2022-09-27T16:25:11;10.00;99.90
3628;DHT22;1830;49.000;12.074;2022-09-27T16:27:38;10.10;99.90
3628;DHT22;1830;49.000;12.074;2022-09-27T16:30:06;10.10;99.90
3628;DHT22;1830;49.000;12.074;2022-09-27T16:32:33;10.20;99.90